METAR Data
IDs: Format: Raw Decoded Include TAF

Data at: 1011 UTC 13 Aug 2022

LIVT 130955Z AUTO 36000KT //// 23/12 Q1012